createdAt,value
2023-07-16T00:01:27.167Z,5.13
2023-07-16T00:03:56.841Z,5.60
2023-07-16T00:06:26.668Z,6.53
2023-07-16T00:08:56.467Z,6.30
2023-07-16T00:11:26.248Z,6.70
2023-07-16T00:13:57.672Z,7.20
2023-07-16T00:16:30.513Z,8.23
2023-07-16T00:19:00.156Z,7.80
2023-07-16T00:21:29.518Z,7.50
2023-07-16T00:23:59.153Z,8.77
2023-07-16T00:26:29.025Z,8.40
2023-07-16T00:29:00.092Z,8.37
2023-07-16T00:31:29.697Z,7.33
2023-07-16T00:33:59.395Z,7.40
2023-07-16T00:36:28.714Z,7.60
2023-07-16T00:38:58.955Z,7.10
2023-07-16T00:41:28.809Z,7.47
2023-07-16T00:44:00.512Z,6.70
2023-07-16T00:46:30.309Z,7.80
2023-07-16T00:49:00.228Z,8.30
2023-07-16T00:51:33.723Z,6.73
2023-07-16T00:54:04.144Z,8.20
2023-07-16T00:56:32.954Z,7.87
2023-07-16T00:59:03.854Z,6.27
2023-07-16T01:01:32.463Z,6.67
2023-07-16T01:04:01.312Z,6.40
2023-07-16T01:06:33.934Z,6.40
2023-07-16T01:09:06.610Z,6.30
2023-07-16T01:11:36.752Z,5.50
2023-07-16T01:14:08.738Z,5.03
2023-07-16T01:16:43.733Z,6.00
2023-07-16T01:19:14.682Z,5.63
2023-07-16T01:21:48.903Z,5.87
2023-07-16T01:24:55.724Z,5.90
2023-07-16T01:27:38.553Z,5.73
2023-07-16T01:30:11.389Z,4.83
2023-07-16T01:32:40.473Z,5.57
2023-07-16T01:35:10.697Z,4.97
2023-07-16T01:37:39.681Z,5.77
2023-07-16T01:40:11.345Z,6.20
2023-07-16T01:42:42.577Z,5.10
2023-07-16T01:45:13.075Z,5.60
2023-07-16T01:47:51.504Z,5.00
2023-07-16T01:50:20.566Z,5.83
2023-07-16T01:52:49.938Z,4.60
2023-07-16T01:55:18.702Z,4.57
2023-07-16T01:57:47.265Z,4.70
2023-07-16T02:00:17.163Z,4.57
2023-07-16T02:02:45.923Z,4.73
2023-07-16T02:05:14.619Z,4.97
2023-07-16T02:07:43.320Z,4.57
2023-07-16T02:10:12.110Z,4.90
2023-07-16T02:12:41.133Z,5.33
2023-07-16T02:15:10.403Z,5.10
2023-07-16T02:17:40.989Z,4.33
2023-07-16T02:20:14.955Z,4.70
2023-07-16T02:22:44.043Z,5.07
2023-07-16T02:25:12.690Z,5.20
2023-07-16T02:27:41.696Z,4.83
2023-07-16T02:30:11.113Z,4.57
2023-07-16T02:32:41.976Z,5.57
2023-07-16T02:35:10.985Z,5.20
2023-07-16T02:37:39.425Z,4.57
2023-07-16T02:40:10.221Z,5.43
2023-07-16T02:42:39.243Z,4.47
2023-07-16T02:45:09.016Z,6.67
2023-07-16T02:47:37.899Z,6.17
2023-07-16T02:50:09.683Z,5.10
2023-07-16T02:52:38.853Z,5.97
2023-07-16T02:55:10.457Z,6.63
2023-07-16T02:57:39.404Z,5.13
2023-07-16T03:00:09.567Z,4.73
2023-07-16T03:02:39.055Z,5.30
2023-07-16T03:05:10.530Z,4.60
2023-07-16T03:07:39.477Z,6.33
2023-07-16T03:10:09.263Z,5.30
2023-07-16T03:12:38.451Z,5.97
2023-07-16T03:15:08.155Z,4.70
2023-07-16T03:17:36.745Z,4.97
2023-07-16T03:20:06.856Z,5.17
2023-07-16T03:22:37.804Z,4.90
2023-07-16T03:25:07.411Z,4.97
2023-07-16T03:27:36.223Z,5.10
2023-07-16T03:30:05.636Z,5.10
2023-07-16T03:32:46.465Z,5.87
2023-07-16T03:35:22.470Z,5.10
2023-07-16T03:37:54.303Z,5.53
2023-07-16T03:40:26.382Z,4.33
2023-07-16T03:42:55.475Z,4.90
2023-07-16T03:45:24.375Z,4.70
2023-07-16T03:47:53.511Z,5.33
2023-07-16T03:50:22.578Z,5.10
2023-07-16T03:52:51.870Z,4.70
2023-07-16T03:55:22.520Z,5.30
2023-07-16T03:57:51.570Z,6.10
2023-07-16T04:00:20.480Z,4.10
2023-07-16T04:02:49.381Z,4.47
2023-07-16T04:05:19.870Z,4.37
2023-07-16T04:07:50.287Z,5.40
2023-07-16T04:10:19.255Z,5.87
2023-07-16T04:12:49.252Z,5.10
2023-07-16T04:15:17.923Z,5.20
2023-07-16T04:17:47.095Z,5.70
2023-07-16T04:20:15.965Z,5.17
2023-07-16T04:22:46.785Z,4.97
2023-07-16T04:25:15.941Z,5.17
2023-07-16T04:27:45.087Z,4.93
2023-07-16T04:30:15.589Z,4.90
2023-07-16T04:32:44.305Z,5.23
2023-07-16T04:35:15.543Z,4.57
2023-07-16T04:37:44.284Z,5.53
2023-07-16T04:40:13.717Z,4.20
2023-07-16T04:42:42.939Z,5.23
2023-07-16T04:45:12.084Z,5.57
2023-07-16T04:47:42.634Z,5.20
2023-07-16T04:50:11.790Z,4.70
2023-07-16T04:52:40.479Z,4.27
2023-07-16T04:55:10.163Z,4.73
2023-07-16T04:57:39.000Z,3.23
2023-07-16T05:00:09.446Z,4.10
2023-07-16T05:02:39.069Z,3.77
2023-07-16T05:05:11.027Z,3.80
2023-07-16T05:07:39.718Z,3.17
2023-07-16T05:10:09.454Z,3.27
2023-07-16T05:12:38.531Z,3.17
2023-07-16T05:15:08.581Z,4.33
2023-07-16T05:17:37.201Z,3.20
2023-07-16T05:20:07.313Z,3.10
2023-07-16T05:22:37.809Z,3.17
2023-07-16T05:25:08.026Z,2.60
2023-07-16T05:27:37.133Z,2.97
2023-07-16T05:30:06.266Z,3.10
2023-07-16T05:32:35.098Z,3.10
2023-07-16T05:35:04.154Z,2.50
2023-07-16T05:37:33.366Z,2.20
2023-07-16T05:40:05.094Z,2.50
2023-07-16T05:42:33.979Z,3.30
2023-07-16T05:45:02.521Z,2.60
2023-07-16T05:47:31.475Z,2.47
2023-07-16T05:50:00.266Z,3.10
2023-07-16T05:52:29.284Z,3.37
2023-07-16T05:54:58.704Z,2.73
2023-07-16T05:57:29.133Z,2.97
2023-07-16T05:59:57.869Z,3.10
2023-07-16T06:02:27.296Z,2.73
2023-07-16T06:04:55.819Z,3.10
2023-07-16T06:07:24.712Z,3.13
2023-07-16T06:09:53.075Z,2.87
2023-07-16T06:12:21.879Z,3.63
2023-07-16T06:14:52.480Z,3.20
2023-07-16T06:17:21.194Z,3.37
2023-07-16T06:19:51.438Z,3.17
2023-07-16T06:22:20.405Z,3.57
2023-07-16T06:24:49.194Z,3.20
2023-07-16T06:27:18.117Z,3.90
2023-07-16T06:29:47.293Z,2.93
2023-07-16T06:32:17.542Z,3.00
2023-07-16T06:34:46.638Z,3.30
2023-07-16T06:37:18.223Z,2.83
2023-07-16T06:39:46.722Z,3.20
2023-07-16T06:42:15.921Z,2.90
2023-07-16T06:44:44.997Z,2.70
2023-07-16T06:47:16.975Z,3.80
2023-07-16T06:49:47.908Z,3.43
2023-07-16T06:52:22.826Z,2.90
2023-07-16T06:54:51.620Z,3.93
2023-07-16T06:57:20.105Z,3.80
2023-07-16T06:59:49.178Z,4.37
2023-07-16T07:02:19.476Z,5.20
2023-07-16T07:04:49.845Z,4.17
2023-07-16T07:07:18.291Z,4.37
2023-07-16T07:09:50.235Z,4.00
2023-07-16T07:12:19.485Z,4.10
2023-07-16T07:14:49.710Z,3.33
2023-07-16T07:17:18.378Z,3.70
2023-07-16T07:19:47.244Z,4.13
2023-07-16T07:22:17.269Z,4.10
2023-07-16T07:24:46.395Z,4.17
2023-07-16T07:27:16.937Z,3.47
2023-07-16T07:29:47.861Z,3.80
2023-07-16T07:32:16.475Z,3.30
2023-07-16T07:34:45.279Z,3.60
2023-07-16T07:37:14.074Z,3.30
2023-07-16T07:39:44.394Z,3.50
2023-07-16T07:42:13.146Z,3.57
2023-07-16T07:44:41.651Z,4.30
2023-07-16T07:47:10.920Z,3.30
2023-07-16T07:49:39.893Z,3.73
2023-07-16T07:52:09.804Z,3.97
2023-07-16T07:54:38.851Z,3.50
2023-07-16T07:57:09.689Z,4.17
2023-07-16T07:59:38.620Z,3.40
2023-07-16T08:02:07.625Z,3.40
2023-07-16T08:04:36.270Z,3.40
2023-07-16T08:07:06.987Z,4.13
2023-07-16T08:09:36.204Z,3.63
2023-07-16T08:12:05.954Z,3.30
2023-07-16T08:14:38.504Z,3.67
2023-07-16T08:17:07.892Z,3.47
2023-07-16T08:19:37.014Z,3.30
2023-07-16T08:22:06.227Z,3.37
2023-07-16T08:24:35.512Z,2.70
2023-07-16T08:27:04.200Z,4.10
2023-07-16T08:29:32.976Z,3.40
2023-07-16T08:32:13.980Z,4.00
2023-07-16T08:34:43.201Z,4.40
2023-07-16T08:37:12.203Z,3.77
2023-07-16T08:39:40.818Z,3.97
2023-07-16T08:42:11.907Z,3.57
2023-07-16T08:44:40.592Z,3.60
2023-07-16T08:47:11.414Z,3.40
2023-07-16T08:49:42.199Z,3.60
2023-07-16T08:52:12.287Z,3.60
2023-07-16T08:54:41.122Z,3.40
2023-07-16T08:57:10.482Z,3.17
2023-07-16T08:59:39.597Z,3.40
2023-07-16T09:02:11.104Z,3.97
2023-07-16T09:04:40.121Z,2.70
2023-07-16T09:07:09.149Z,3.53
2023-07-16T09:09:38.217Z,3.10
2023-07-16T09:12:07.460Z,3.80
2023-07-16T09:14:36.566Z,3.73
2023-07-16T09:17:06.174Z,4.00
2023-07-16T09:19:36.775Z,3.23
2023-07-16T09:22:06.426Z,2.90
2023-07-16T09:24:38.845Z,3.90
2023-07-16T09:27:08.285Z,4.00
2023-07-16T09:29:40.812Z,3.00
2023-07-16T09:32:10.735Z,3.40
2023-07-16T09:34:41.384Z,3.23
2023-07-16T09:37:10.310Z,3.60
2023-07-16T09:39:40.288Z,3.10
2023-07-16T09:42:09.689Z,3.20
2023-07-16T09:44:39.128Z,3.30
2023-07-16T09:47:08.837Z,4.07
2023-07-16T09:49:37.746Z,3.80
2023-07-16T09:52:09.508Z,4.27
2023-07-16T09:54:40.526Z,3.70
2023-07-16T09:57:10.685Z,3.53
2023-07-16T09:59:39.759Z,4.37
2023-07-16T10:02:10.224Z,4.80
2023-07-16T10:04:42.797Z,3.17
2023-07-16T10:07:24.271Z,3.73
2023-07-16T10:09:58.595Z,3.43
2023-07-16T10:12:29.862Z,3.70
2023-07-16T10:14:59.019Z,3.80
2023-07-16T10:17:29.447Z,3.90
2023-07-16T10:20:00.358Z,3.50
2023-07-16T10:22:38.864Z,4.27
2023-07-16T10:25:11.660Z,3.33
2023-07-16T10:27:40.154Z,3.80
2023-07-16T10:30:10.084Z,4.13
2023-07-16T10:32:39.091Z,4.17
2023-07-16T10:35:10.902Z,3.50
2023-07-16T10:37:42.653Z,4.20
2023-07-16T10:40:13.913Z,3.87
2023-07-16T10:42:44.099Z,3.10
2023-07-16T10:45:13.400Z,3.37
2023-07-16T10:47:54.452Z,3.30
2023-07-16T10:50:24.222Z,3.83
2023-07-16T10:52:55.972Z,3.27
2023-07-16T10:55:25.135Z,3.70
2023-07-16T10:57:55.068Z,2.90
2023-07-16T11:00:24.416Z,3.20
2023-07-16T11:02:54.159Z,3.20
2023-07-16T11:05:23.404Z,3.30
2023-07-16T11:07:55.563Z,2.83
2023-07-16T11:10:27.402Z,2.73
2023-07-16T11:12:56.632Z,2.87
2023-07-16T11:15:37.971Z,3.80
2023-07-16T11:18:07.084Z,3.43
2023-07-16T11:20:36.305Z,3.50
2023-07-16T11:23:06.567Z,4.10
2023-07-16T11:25:36.796Z,3.70
2023-07-16T11:28:05.609Z,3.17
2023-07-16T11:30:34.632Z,4.03
2023-07-16T11:33:03.534Z,2.77
2023-07-16T11:35:32.711Z,3.37
2023-07-16T11:38:02.233Z,2.70
2023-07-16T11:40:31.222Z,3.37
2023-07-16T11:43:10.788Z,3.50
2023-07-16T11:45:40.488Z,3.30
2023-07-16T11:48:09.190Z,2.73
2023-07-16T11:50:40.084Z,2.93
2023-07-16T11:53:09.102Z,3.67
2023-07-16T11:55:38.276Z,3.47
2023-07-16T11:58:08.483Z,3.53
2023-07-16T12:00:37.633Z,3.70
2023-07-16T12:03:06.268Z,3.07
2023-07-16T12:05:50.392Z,3.30
2023-07-16T12:08:23.366Z,3.20
2023-07-16T12:10:52.375Z,2.60
2023-07-16T12:13:22.637Z,2.90
2023-07-16T12:15:51.256Z,2.90
2023-07-16T12:18:21.213Z,3.00
2023-07-16T12:20:50.353Z,3.20
2023-07-16T12:23:19.520Z,2.70
2023-07-16T12:25:48.603Z,2.60
2023-07-16T12:28:17.259Z,3.53
2023-07-16T12:30:47.598Z,3.67
2023-07-16T12:33:16.531Z,3.23
2023-07-16T12:35:45.734Z,3.10
2023-07-16T12:38:14.884Z,3.10
2023-07-16T12:40:43.740Z,3.03
2023-07-16T12:43:12.989Z,3.10
2023-07-16T12:45:42.280Z,3.43
2023-07-16T12:48:13.007Z,3.50
2023-07-16T12:50:41.375Z,2.90
2023-07-16T12:53:10.181Z,3.10
2023-07-16T12:55:38.965Z,3.40
2023-07-16T12:58:07.762Z,4.40
2023-07-16T13:00:36.445Z,3.10
2023-07-16T13:03:06.040Z,3.57
2023-07-16T13:05:36.003Z,3.07
2023-07-16T13:08:05.764Z,3.27
2023-07-16T13:10:34.925Z,2.80
2023-07-16T13:13:05.566Z,3.40
2023-07-16T13:15:35.434Z,3.80
2023-07-16T13:18:07.648Z,3.10
2023-07-16T13:20:37.957Z,3.40
2023-07-16T13:23:10.044Z,3.80
2023-07-16T13:25:39.875Z,2.87
2023-07-16T13:28:09.603Z,3.00
2023-07-16T13:30:44.374Z,3.83
2023-07-16T13:33:16.506Z,3.37
2023-07-16T13:35:46.751Z,3.27
2023-07-16T13:38:16.415Z,3.37
2023-07-16T13:40:45.449Z,3.17
2023-07-16T13:43:14.147Z,3.43
2023-07-16T13:45:44.851Z,3.20
2023-07-16T13:48:13.943Z,4.30
2023-07-16T13:50:43.000Z,3.60
2023-07-16T13:53:13.556Z,3.70
2023-07-16T13:55:42.565Z,3.77
2023-07-16T13:58:14.464Z,3.30
2023-07-16T14:00:43.579Z,2.83
2023-07-16T14:03:12.347Z,2.63
2023-07-16T14:05:41.869Z,3.40
2023-07-16T14:08:10.923Z,3.27
2023-07-16T14:10:41.503Z,2.93
2023-07-16T14:13:11.212Z,3.47
2023-07-16T14:15:40.298Z,3.50
2023-07-16T14:18:09.672Z,3.10
2023-07-16T14:20:38.564Z,3.23
2023-07-16T14:23:07.635Z,3.50
2023-07-16T14:25:36.945Z,2.63
2023-07-16T14:28:07.007Z,2.60
2023-07-16T14:30:36.467Z,3.10
2023-07-16T14:33:06.323Z,2.83
2023-07-16T14:35:38.136Z,2.87
2023-07-16T14:38:07.627Z,2.80
2023-07-16T14:40:36.528Z,2.97
2023-07-16T14:43:08.258Z,3.10
2023-07-16T14:45:37.933Z,3.20
2023-07-16T14:48:07.248Z,3.00
2023-07-16T14:50:36.202Z,2.67
2023-07-16T14:53:05.397Z,2.33
2023-07-16T14:55:34.366Z,3.10
2023-07-16T14:58:03.705Z,2.77
2023-07-16T15:00:34.150Z,2.70
2023-07-16T15:03:03.330Z,2.87
2023-07-16T15:05:32.176Z,3.70
2023-07-16T15:08:01.030Z,3.40
2023-07-16T15:10:29.981Z,2.97
2023-07-16T15:12:58.866Z,2.60
2023-07-16T15:15:27.660Z,3.17
2023-07-16T15:17:58.217Z,3.20
2023-07-16T15:20:27.523Z,3.30
2023-07-16T15:22:56.809Z,3.13
2023-07-16T15:25:26.589Z,2.90
2023-07-16T15:27:55.627Z,2.83
2023-07-16T15:30:24.482Z,3.70
2023-07-16T15:32:57.833Z,3.57
2023-07-16T15:35:27.011Z,2.93
2023-07-16T15:37:58.073Z,3.20
2023-07-16T15:40:27.343Z,3.20
2023-07-16T15:42:56.408Z,2.83
2023-07-16T15:45:25.607Z,2.93
2023-07-16T15:47:58.592Z,3.00
2023-07-16T15:50:30.274Z,2.40
2023-07-16T15:52:59.278Z,3.30
2023-07-16T15:55:28.104Z,2.37
2023-07-16T15:57:59.990Z,2.83
2023-07-16T16:00:29.034Z,3.17
2023-07-16T16:02:58.157Z,3.37
2023-07-16T16:05:27.578Z,3.10
2023-07-16T16:08:18.222Z,3.40
2023-07-16T16:10:49.056Z,3.00
2023-07-16T16:13:18.422Z,3.20
2023-07-16T16:15:47.921Z,2.97
2023-07-16T16:18:17.062Z,2.20
2023-07-16T16:20:46.832Z,2.90
2023-07-16T16:23:17.679Z,3.00
2023-07-16T16:25:49.238Z,4.80
2023-07-16T16:28:18.196Z,3.73
2023-07-16T16:30:47.108Z,3.90
2023-07-16T16:33:17.250Z,2.80
2023-07-16T16:35:46.346Z,2.93
2023-07-16T16:38:16.505Z,3.27
2023-07-16T16:40:46.136Z,3.70
2023-07-16T16:43:15.076Z,2.93
2023-07-16T16:45:45.394Z,3.10
2023-07-16T16:48:14.196Z,2.90
2023-07-16T16:50:43.366Z,2.83
2023-07-16T16:53:12.418Z,3.47
2023-07-16T16:55:43.412Z,3.53
2023-07-16T16:58:12.401Z,3.33
2023-07-16T17:00:41.461Z,3.50
2023-07-16T17:03:10.426Z,3.07
2023-07-16T17:05:40.001Z,3.27
2023-07-16T17:08:09.357Z,3.10
2023-07-16T17:10:38.396Z,3.43
2023-07-16T17:13:08.826Z,3.23
2023-07-16T17:15:37.585Z,3.40
2023-07-16T17:18:08.414Z,3.73
2023-07-16T17:20:39.644Z,2.50
2023-07-16T17:23:08.388Z,3.00
2023-07-16T17:25:37.475Z,3.20
2023-07-16T17:28:06.992Z,3.10
2023-07-16T17:30:37.788Z,3.57
2023-07-16T17:33:06.677Z,3.33
2023-07-16T17:35:35.404Z,3.30
2023-07-16T17:38:05.352Z,3.10
2023-07-16T17:40:34.279Z,3.53
2023-07-16T17:43:03.591Z,2.87
2023-07-16T17:45:32.162Z,3.20
2023-07-16T17:48:02.974Z,3.10
2023-07-16T17:50:32.173Z,2.67
2023-07-16T17:53:04.252Z,3.30
2023-07-16T17:55:36.038Z,3.80
2023-07-16T17:58:07.710Z,3.77
2023-07-16T18:00:36.873Z,3.67
2023-07-16T18:03:07.557Z,3.43
2023-07-16T18:05:36.614Z,3.67
2023-07-16T18:08:08.383Z,3.53
2023-07-16T18:10:39.728Z,2.97
2023-07-16T18:13:09.476Z,3.63
2023-07-16T18:15:50.631Z,3.23
2023-07-16T18:18:22.560Z,3.10
2023-07-16T18:20:55.423Z,2.80
2023-07-16T18:23:29.426Z,3.27
2023-07-16T18:25:58.733Z,3.17
2023-07-16T18:28:29.007Z,2.87
2023-07-16T18:30:58.448Z,3.00
2023-07-16T18:33:29.016Z,2.97
2023-07-16T18:35:58.190Z,2.73
2023-07-16T18:38:28.082Z,2.83
2023-07-16T18:40:57.015Z,3.63
2023-07-16T18:43:26.698Z,3.70
2023-07-16T18:45:55.866Z,3.97
2023-07-16T18:48:24.968Z,3.83
2023-07-16T18:50:58.868Z,3.90
2023-07-16T18:53:29.186Z,4.20
2023-07-16T18:55:58.456Z,3.10
2023-07-16T18:58:27.591Z,2.93
2023-07-16T19:00:57.154Z,3.20
2023-07-16T19:03:27.078Z,3.70
2023-07-16T19:05:59.473Z,3.30
2023-07-16T19:08:28.562Z,3.00
2023-07-16T19:10:58.119Z,2.40
2023-07-16T19:13:27.328Z,2.93
2023-07-16T19:15:56.109Z,3.17
2023-07-16T19:18:25.338Z,3.57
2023-07-16T19:20:54.661Z,3.00
2023-07-16T19:23:26.303Z,3.43
2023-07-16T19:25:55.171Z,3.10
2023-07-16T19:28:23.977Z,3.17
2023-07-16T19:30:54.103Z,2.93
2023-07-16T19:33:25.941Z,3.40
2023-07-16T19:36:12.841Z,3.30
2023-07-16T19:38:45.742Z,2.67
2023-07-16T19:41:14.918Z,2.80
2023-07-16T19:43:43.857Z,3.83
2023-07-16T19:46:12.393Z,3.50
2023-07-16T19:48:41.352Z,4.20
2023-07-16T19:51:10.222Z,3.60
2023-07-16T19:53:39.078Z,4.90
2023-07-16T19:56:09.443Z,4.47
2023-07-16T19:58:38.313Z,4.00
2023-07-16T20:01:08.088Z,4.00
2023-07-16T20:03:37.144Z,4.07
2023-07-16T20:06:09.524Z,3.87
2023-07-16T20:08:38.750Z,4.40
2023-07-16T20:11:09.299Z,4.50
2023-07-16T20:13:38.171Z,5.10
2023-07-16T20:16:07.893Z,3.73
2023-07-16T20:18:38.127Z,4.00
2023-07-16T20:21:09.358Z,3.90
2023-07-16T20:23:38.303Z,4.07
2023-07-16T20:26:08.460Z,4.33
2023-07-16T20:28:37.591Z,4.40
2023-07-16T20:31:08.581Z,3.63
2023-07-16T20:33:37.979Z,5.00
2023-07-16T20:36:07.516Z,4.53
2023-07-16T20:38:36.829Z,4.70
2023-07-16T20:41:07.054Z,4.60
2023-07-16T20:43:37.280Z,4.60
2023-07-16T20:46:06.133Z,4.20
2023-07-16T20:48:34.656Z,4.90
2023-07-16T20:51:04.551Z,3.83
2023-07-16T20:53:33.282Z,4.97
2023-07-16T20:56:02.150Z,4.97
2023-07-16T20:58:30.508Z,4.43
2023-07-16T21:01:01.246Z,4.53
2023-07-16T21:03:31.855Z,5.40
2023-07-16T21:06:00.991Z,5.20
2023-07-16T21:08:29.534Z,5.77
2023-07-16T21:10:58.619Z,5.57
2023-07-16T21:13:27.419Z,3.90
2023-07-16T21:15:56.355Z,3.90
2023-07-16T21:18:27.372Z,4.70
2023-07-16T21:20:56.453Z,3.80
2023-07-16T21:23:26.215Z,4.67
2023-07-16T21:25:55.458Z,4.50
2023-07-16T21:28:24.242Z,3.33
2023-07-16T21:30:53.365Z,3.60
2023-07-16T21:33:22.465Z,3.23
2023-07-16T21:35:52.759Z,3.67
2023-07-16T21:38:21.452Z,3.10
2023-07-16T21:40:50.505Z,3.80
2023-07-16T21:43:19.672Z,3.40
2023-07-16T21:45:50.319Z,3.50
2023-07-16T21:48:19.458Z,3.50
2023-07-16T21:50:48.441Z,3.90
2023-07-16T21:53:19.013Z,3.57
2023-07-16T21:55:48.183Z,3.53
2023-07-16T21:58:17.532Z,2.97
2023-07-16T22:00:47.595Z,3.57
2023-07-16T22:03:16.893Z,3.30
2023-07-16T22:05:46.464Z,3.20
2023-07-16T22:08:15.422Z,4.13
2023-07-16T22:10:45.258Z,4.33
2023-07-16T22:13:16.268Z,4.03
2023-07-16T22:15:55.462Z,5.93
2023-07-16T22:18:24.406Z,5.10
2023-07-16T22:20:53.301Z,4.60
2023-07-16T22:23:22.185Z,4.40
2023-07-16T22:25:52.540Z,4.00
2023-07-16T22:28:21.236Z,3.87
2023-07-16T22:30:50.458Z,3.50
2023-07-16T22:33:19.819Z,5.30
2023-07-16T22:35:48.672Z,4.67
2023-07-16T22:38:17.520Z,4.77
2023-07-16T22:40:46.448Z,5.20
2023-07-16T22:43:16.606Z,5.30
2023-07-16T22:45:48.053Z,6.80
2023-07-16T22:48:18.499Z,5.67
2023-07-16T22:50:47.945Z,5.90
2023-07-16T22:53:16.708Z,6.20
2023-07-16T22:55:52.105Z,5.20
2023-07-16T22:58:25.047Z,5.23
2023-07-16T23:00:57.913Z,5.63
2023-07-16T23:03:26.756Z,5.60
2023-07-16T23:05:56.098Z,6.43
2023-07-16T23:08:24.882Z,5.97
2023-07-16T23:10:54.030Z,5.90
2023-07-16T23:13:22.946Z,5.73
2023-07-16T23:15:53.543Z,5.43
2023-07-16T23:18:22.764Z,6.30
2023-07-16T23:20:51.715Z,5.63
2023-07-16T23:23:20.725Z,5.13
2023-07-16T23:25:49.401Z,5.97
2023-07-16T23:28:20.743Z,5.30
2023-07-16T23:30:50.907Z,7.60
2023-07-16T23:33:21.230Z,6.77
2023-07-16T23:35:50.257Z,4.80
2023-07-16T23:38:18.935Z,5.90
2023-07-16T23:40:47.565Z,5.97
2023-07-16T23:43:16.285Z,4.83
2023-07-16T23:45:46.361Z,4.57
2023-07-16T23:48:42.161Z,5.70
2023-07-16T23:51:11.381Z,5.17
2023-07-16T23:53:41.271Z,3.40
